Time;durP1;ratioP1;P1;durP2;ratioP2;P2;SDS_P1;SDS_P2;PMS_P1;PMS_P2;Temp;Humidity;BMP_temperature;BMP_pressure;BME280_temperature;BME280_humidity;BME280_pressure;Samples;Min_cycle;Max_cycle;Signal;HPM_P1;HPM_P2
2024/01/13 00:04:27;;;;;;;17.50;11.90;;;;;;;-0.42;86.69;100440.80;216133;1253;61314;-72
2024/01/13 00:09:20;;;;;;;16.60;11.70;;;;;;;-0.43;86.91;100440.42;216116;1252;61381;-72
2024/01/13 00:14:13;;;;;;;19.40;12.30;;;;;;;-0.43;86.82;100433.88;216318;1253;61346;-72
2024/01/13 00:19:06;;;;;;;18.90;12.10;;;;;;;-0.43;86.85;100432.02;216126;1253;61279;-72
2024/01/13 00:24:00;;;;;;;16.90;11.20;;;;;;;-0.43;86.76;100427.93;216025;1254;62442;-73
2024/01/13 00:29:12;;;;;;;18.80;11.40;;;;;;;-0.43;87.01;100436.30;216038;1253;61237;-74
2024/01/13 00:34:05;;;;;;;17.50;11.30;;;;;;;-0.43;86.88;100435.28;216087;1251;74871;-74
2024/01/13 00:38:58;;;;;;;20.40;12.80;;;;;;;-0.42;86.79;100425.98;216279;1252;72202;-73
2024/01/13 00:43:52;;;;;;;17.30;11.90;;;;;;;-0.42;86.79;100422.23;216401;1254;59872;-73
2024/01/13 00:48:44;;;;;;;17.70;11.20;;;;;;;-0.42;86.87;100415.42;216188;1252;65748;-73
2024/01/13 00:53:38;;;;;;;18.10;11.00;;;;;;;-0.41;86.74;100417.52;216072;1253;61297;-73
2024/01/13 00:58:31;;;;;;;14.50;11.00;;;;;;;-0.41;86.91;100414.44;216226;1254;74381;-73
2024/01/13 01:03:36;;;;;;;15.40;10.50;;;;;;;-0.43;87.04;100425.95;216231;1253;71135;-73
2024/01/13 01:08:29;;;;;;;16.70;10.90;;;;;;;-0.44;87.27;100420.44;216361;1253;61666;-73
2024/01/13 01:13:31;;;;;;;15.30;10.40;;;;;;;-0.44;87.36;100411.86;216232;1254;66792;-73
2024/01/13 01:18:24;;;;;;;17.50;12.00;;;;;;;-0.46;87.39;100410.27;216220;1253;61361;-74
2024/01/13 01:23:34;;;;;;;17.60;11.50;;;;;;;-0.46;87.40;100393.91;216189;1252;74372;-73
2024/01/13 01:28:27;;;;;;;18.60;10.50;;;;;;;-0.46;87.26;100400.52;216203;1254;61381;-73
2024/01/13 01:33:27;;;;;;;16.90;11.20;;;;;;;-0.46;87.17;100404.13;216349;1256;61381;-74
2024/01/13 01:38:21;;;;;;;15.30;9.60;;;;;;;-0.46;87.15;100406.67;216183;1254;174867;-73
2024/01/13 01:43:31;;;;;;;16.00;10.50;;;;;;;-0.45;87.14;100407.94;216133;1256;61269;-73
2024/01/13 01:48:30;;;;;;;16.70;10.50;;;;;;;-0.43;87.01;100405.63;216227;1254;61361;-74
2024/01/13 01:53:32;;;;;;;13.70;8.90;;;;;;;-0.43;87.12;100406.67;216305;1252;72646;-74
2024/01/13 01:58:25;;;;;;;13.50;8.60;;;;;;;-0.42;86.90;100400.25;216249;1254;61359;-73
2024/01/13 02:03:26;;;;;;;15.70;10.00;;;;;;;-0.41;86.90;100395.56;216249;1253;65983;-74
2024/01/13 02:08:19;;;;;;;12.60;9.50;;;;;;;-0.40;86.80;100381.11;216406;1254;61917;-73
2024/01/13 02:13:30;;;;;;;16.20;9.90;;;;;;;-0.39;86.90;100370.95;216409;1252;73673;-74
2024/01/13 02:18:23;;;;;;;11.90;9.00;;;;;;;-0.38;86.84;100358.73;216205;1254;72481;-71
2024/01/13 02:23:30;;;;;;;13.10;8.50;;;;;;;-0.37;86.77;100352.98;216220;1253;61247;-72
2024/01/13 02:28:23;;;;;;;11.00;7.50;;;;;;;-0.37;86.76;100352.83;216228;1253;61833;-72
2024/01/13 02:33:34;;;;;;;13.50;8.50;;;;;;;-0.36;86.59;100344.34;216199;1254;61234;-72
2024/01/13 02:38:27;;;;;;;13.70;9.10;;;;;;;-0.35;86.56;100338.09;216283;1251;73969;-72
2024/01/13 02:43:29;;;;;;;12.20;8.90;;;;;;;-0.36;86.32;100331.08;216192;1253;72790;-72
2024/01/13 02:48:21;;;;;;;12.70;8.80;;;;;;;-0.36;86.52;100322.54;216067;1251;61329;-72
2024/01/13 02:53:27;;;;;;;13.60;9.70;;;;;;;-0.37;86.61;100317.39;216149;1254;67195;-72
2024/01/13 02:58:19;;;;;;;15.30;8.30;;;;;;;-0.38;86.47;100314.98;216259;1252;61214;-72
2024/01/13 03:03:31;;;;;;;14.50;9.10;;;;;;;-0.39;86.38;100312.71;216200;1253;73348;-72
2024/01/13 03:08:24;;;;;;;11.20;8.30;;;;;;;-0.39;86.33;100307.61;216256;1251;61279;-72
2024/01/13 03:13:29;;;;;;;12.70;9.30;;;;;;;-0.38;86.46;100305.45;216201;1253;61252;-72
2024/01/13 03:18:22;;;;;;;12.60;8.60;;;;;;;-0.37;86.36;100313.65;216387;1253;61326;-71
2024/01/13 03:23:27;;;;;;;12.90;8.80;;;;;;;-0.36;86.09;100314.89;216179;1254;61350;-72
2024/01/13 03:28:20;;;;;;;12.70;8.70;;;;;;;-0.35;86.03;100321.74;216270;1251;61239;-72
2024/01/13 03:33:25;;;;;;;13.60;9.10;;;;;;;-0.35;86.21;100319.86;216224;1256;71379;-72
2024/01/13 03:38:18;;;;;;;13.40;9.00;;;;;;;-0.34;86.09;100329.14;216287;1251;61250;-72
2024/01/13 03:43:26;;;;;;;10.90;8.80;;;;;;;-0.34;85.92;100326.27;216107;1254;67161;-72
2024/01/13 03:48:19;;;;;;;12.70;8.10;;;;;;;-0.33;85.99;100322.05;216347;1253;61373;-72
2024/01/13 03:53:12;;;;;;;12.20;7.90;;;;;;;-0.33;85.93;100324.44;216290;1254;61320;-72
2024/01/13 03:58:06;;;;;;;11.90;8.70;;;;;;;-0.33;86.08;100325.13;216238;1254;61485;-71
2024/01/13 04:02:59;;;;;;;11.50;7.80;;;;;;;-0.32;86.28;100318.35;216298;1254;61262;-72
2024/01/13 04:07:52;;;;;;;12.20;7.60;;;;;;;-0.32;86.07;100313.27;216181;1253;61268;-72
2024/01/13 04:12:45;;;;;;;12.30;8.70;;;;;;;-0.31;85.88;100312.29;216211;1254;61293;-72
2024/01/13 04:17:38;;;;;;;13.60;8.90;;;;;;;-0.30;86.04;100321.52;216202;1254;74520;-72
2024/01/13 04:22:31;;;;;;;14.40;8.90;;;;;;;-0.29;86.02;100326.34;216237;1252;72827;-72
2024/01/13 04:27:24;;;;;;;12.00;7.70;;;;;;;-0.28;86.27;100322.64;216228;1254;69356;-72
2024/01/13 04:32:17;;;;;;;14.40;8.70;;;;;;;-0.27;86.11;100320.30;216201;1253;61346;-72
2024/01/13 04:37:10;;;;;;;13.30;9.80;;;;;;;-0.27;86.12;100313.71;216340;1253;61250;-72
2024/01/13 04:42:02;;;;;;;15.70;9.80;;;;;;;-0.27;86.12;100323.75;216209;1254;61343;-72
2024/01/13 04:46:55;;;;;;;14.90;10.10;;;;;;;-0.27;86.32;100324.45;216210;1252;61259;-72
2024/01/13 04:51:48;;;;;;;15.20;10.90;;;;;;;-0.26;86.25;100322.43;216343;1253;61342;-72
2024/01/13 04:56:42;;;;;;;17.70;10.80;;;;;;;-0.25;86.02;100316.67;216229;1252;61218;-72
2024/01/13 05:01:34;;;;;;;17.40;10.60;;;;;;;-0.25;86.47;100313.98;216192;1252;61460;-72
2024/01/13 05:06:27;;;;;;;16.00;11.20;;;;;;;-0.24;86.68;100316.05;216265;1251;61260;-72
2024/01/13 05:11:20;;;;;;;15.60;10.20;;;;;;;-0.24;86.20;100312.13;216105;1254;61204;-73
2024/01/13 05:16:13;;;;;;;18.10;12.00;;;;;;;-0.24;86.44;100306.73;216229;1253;61214;-72
2024/01/13 05:21:05;;;;;;;17.00;11.20;;;;;;;-0.24;86.59;100312.00;216161;1254;61269;-72
2024/01/13 05:25:58;;;;;;;16.30;10.70;;;;;;;-0.23;86.44;100316.64;216151;1253;61342;-72
2024/01/13 05:30:51;;;;;;;18.20;12.10;;;;;;;-0.22;86.73;100318.05;216311;1251;61195;-72
2024/01/13 05:35:44;;;;;;;17.90;12.20;;;;;;;-0.24;86.90;100316.77;216231;1254;61285;-72
2024/01/13 05:40:40;;;;;;;19.20;12.40;;;;;;;-0.24;86.83;100329.84;216367;1254;61244;-72
2024/01/13 05:45:34;;;;;;;20.80;12.30;;;;;;;-0.26;87.31;100335.22;216257;1256;72675;-72
2024/01/13 05:50:26;;;;;;;18.70;12.10;;;;;;;-0.27;87.03;100335.33;216284;1254;61304;-72
2024/01/13 05:55:19;;;;;;;18.60;12.20;;;;;;;-0.28;87.15;100333.23;216194;1253;61374;-72
2024/01/13 06:00:13;;;;;;;16.70;12.60;;;;;;;-0.30;87.12;100332.59;216250;1253;61282;-72
2024/01/13 06:05:07;;;;;;;18.20;12.50;;;;;;;-0.32;87.17;100338.46;216162;1253;73406;-72
2024/01/13 06:10:00;;;;;;;19.10;12.50;;;;;;;-0.33;87.13;100330.90;216175;1256;71368;-73
2024/01/13 06:14:53;;;;;;;15.90;10.70;;;;;;;-0.33;87.24;100328.37;216214;1254;61346;-72
2024/01/13 06:19:46;;;;;;;16.70;10.40;;;;;;;-0.33;87.31;100328.49;216030;1254;61384;-72
2024/01/13 06:24:39;;;;;;;14.20;10.60;;;;;;;-0.33;87.13;100332.09;216267;1253;61337;-73
2024/01/13 06:29:32;;;;;;;13.70;9.70;;;;;;;-0.34;87.34;100332.52;216246;1254;61262;-72
2024/01/13 06:34:25;;;;;;;17.00;10.50;;;;;;;-0.35;87.58;100327.06;216151;1254;72744;-72
2024/01/13 06:39:18;;;;;;;15.60;11.40;;;;;;;-0.36;87.29;100326.85;216233;1252;61281;-72
2024/01/13 06:44:11;;;;;;;15.60;9.70;;;;;;;-0.35;87.31;100334.71;216155;1253;61487;-72
2024/01/13 06:49:04;;;;;;;17.00;10.50;;;;;;;-0.36;87.43;100331.09;216253;1252;61241;-72
2024/01/13 06:53:57;;;;;;;15.00;10.90;;;;;;;-0.35;87.56;100337.09;216088;1253;61333;-72
2024/01/13 06:58:50;;;;;;;16.00;10.30;;;;;;;-0.35;87.37;100339.65;216157;1252;61237;-72
2024/01/13 07:03:42;;;;;;;17.00;10.70;;;;;;;-0.34;87.47;100341.59;216263;1254;61236;-72
2024/01/13 07:08:35;;;;;;;16.90;10.10;;;;;;;-0.32;87.50;100346.44;216171;1253;61249;-72
2024/01/13 07:13:28;;;;;;;13.00;9.00;;;;;;;-0.31;87.45;100349.20;216190;1252;61314;-72
2024/01/13 07:18:21;;;;;;;14.40;9.80;;;;;;;-0.30;87.46;100357.34;216195;1253;61423;-72
2024/01/13 07:23:14;;;;;;;15.80;10.10;;;;;;;-0.29;87.36;100360.25;216137;1254;61326;-72
2024/01/13 07:28:07;;;;;;;18.90;11.40;;;;;;;-0.27;87.67;100364.61;216182;1253;61354;-72
2024/01/13 07:32:59;;;;;;;17.40;10.40;;;;;;;-0.24;87.56;100363.80;216241;1254;61297;-72
2024/01/13 07:37:52;;;;;;;15.50;9.40;;;;;;;-0.19;87.62;100362.14;216228;1253;61285;-71
2024/01/13 07:42:45;;;;;;;20.10;10.70;;;;;;;-0.15;87.46;100366.13;216221;1253;61362;-72
2024/01/13 07:47:38;;;;;;;16.90;11.00;;;;;;;-0.14;87.47;100365.53;216220;1253;61217;-72
2024/01/13 07:52:31;;;;;;;16.50;11.10;;;;;;;-0.13;87.48;100366.56;216203;1256;61262;-72
2024/01/13 07:57:26;;;;;;;19.20;12.10;;;;;;;-0.12;87.46;100374.63;216103;1254;61231;-72
2024/01/13 08:02:19;;;;;;;18.20;11.30;;;;;;;-0.13;87.62;100370.98;216207;1253;61240;-73
2024/01/13 08:07:12;;;;;;;19.30;12.30;;;;;;;-0.13;87.64;100369.64;216146;1254;61240;-72
2024/01/13 08:12:07;;;;;;;20.50;10.90;;;;;;;-0.13;87.62;100366.23;216163;1254;71975;-73
2024/01/13 08:17:00;;;;;;;20.90;11.40;;;;;;;-0.10;87.54;100361.97;216173;1254;61359;-72
2024/01/13 08:21:53;;;;;;;20.20;12.70;;;;;;;-0.07;87.56;100364.86;216156;1254;61321;-72
2024/01/13 08:26:46;;;;;;;22.10;12.70;;;;;;;-0.04;87.96;100360.09;216152;1253;61244;-72
2024/01/13 08:31:39;;;;;;;20.00;13.50;;;;;;;0.04;87.59;100361.67;216102;1254;61270;-72
2024/01/13 08:36:33;;;;;;;22.50;13.00;;;;;;;0.14;87.76;100362.55;216148;1254;71669;-72
2024/01/13 08:41:26;;;;;;;18.90;13.00;;;;;;;0.22;87.56;100363.30;216250;1256;61893;-72
2024/01/13 08:46:26;;;;;;;22.90;13.60;;;;;;;0.21;87.37;100363.27;216217;1254;67068;-72
2024/01/13 08:51:19;;;;;;;18.80;11.50;;;;;;;0.22;87.55;100366.36;216186;1254;61707;-72
2024/01/13 08:56:25;;;;;;;19.00;12.00;;;;;;;0.26;87.62;100371.70;216108;1256;75492;-72
2024/01/13 09:01:19;;;;;;;17.20;10.70;;;;;;;0.32;86.99;100371.88;216130;1254;61205;-73
2024/01/13 09:06:27;;;;;;;19.20;13.60;;;;;;;0.44;86.80;100376.08;216135;1254;61275;-72
2024/01/13 09:11:20;;;;;;;24.10;14.00;;;;;;;0.53;86.46;100375.67;215911;1254;61269;-72
2024/01/13 09:16:30;;;;;;;20.90;13.40;;;;;;;0.62;86.43;100372.22;216108;1254;61253;-73
2024/01/13 09:21:23;;;;;;;18.30;11.80;;;;;;;0.77;85.96;100369.88;215977;1254;61858;-72
2024/01/13 09:26:31;;;;;;;18.00;12.10;;;;;;;0.73;85.83;100358.63;216075;1253;72608;-72
2024/01/13 09:31:23;;;;;;;21.70;12.00;;;;;;;0.72;85.81;100343.41;216151;1254;61237;-72
2024/01/13 09:36:30;;;;;;;20.40;13.20;;;;;;;0.65;84.99;100340.13;216124;1254;65810;-73
2024/01/13 09:41:24;;;;;;;20.30;11.50;;;;;;;0.59;85.30;100328.21;216051;1254;61237;-72
2024/01/13 09:46:30;;;;;;;19.10;11.00;;;;;;;0.55;85.19;100328.37;215904;1254;74652;-74
2024/01/13 09:51:24;;;;;;;20.00;10.80;;;;;;;0.50;84.83;100326.92;216021;1253;71888;-73
2024/01/13 09:56:33;;;;;;;19.40;10.00;;;;;;;0.47;84.87;100320.95;216150;1256;61213;-73
2024/01/13 10:01:27;;;;;;;17.30;10.20;;;;;;;0.44;84.74;100317.91;216088;1254;65625;-73
2024/01/13 10:06:27;;;;;;;20.10;10.70;;;;;;;0.40;84.50;100317.00;215924;1254;61169;-73
2024/01/13 10:11:20;;;;;;;18.70;11.40;;;;;;;0.39;84.72;100311.34;216105;1254;74586;-73
2024/01/13 10:21:30;;;;;;;21.80;12.70;;;;;;;0.56;84.67;100280.67;216175;1251;61393;-72
2024/01/13 10:26:32;;;;;;;22.30;13.30;;;;;;;0.72;84.29;100272.80;216208;1254;65912;-72
2024/01/13 10:31:26;;;;;;;24.50;14.00;;;;;;;0.65;83.97;100275.34;216174;1254;61214;-72
2024/01/13 10:36:29;;;;;;;24.30;14.30;;;;;;;0.53;83.81;100278.79;216097;1256;73504;-72
2024/01/13 10:41:24;;;;;;;25.30;13.50;;;;;;;0.40;84.39;100284.47;215920;1253;72432;-72
2024/01/13 10:46:25;;;;;;;22.70;13.90;;;;;;;0.29;84.19;100274.03;215983;1256;61256;-72
2024/01/13 10:51:42;;;;;;;26.10;13.50;;;;;;;0.19;84.31;100274.20;216089;1254;66773;-72
2024/01/13 10:56:37;;;;;;;16.40;10.40;;;;;;;0.13;84.48;100265.04;215891;1254;61314;-72
2024/01/13 11:01:30;;;;;;;25.10;13.70;;;;;;;0.08;84.50;100253.85;215922;1256;74698;-71
2024/01/13 11:06:31;;;;;;;20.70;12.40;;;;;;;0.10;84.31;100243.71;215754;1254;72944;-72
2024/01/13 11:11:38;;;;;;;18.10;12.40;;;;;;;0.10;84.43;100233.02;215825;1256;61365;-73
2024/01/13 11:16:36;;;;;;;25.40;15.50;;;;;;;0.08;84.22;100224.20;215772;1254;65346;-73
2024/01/13 11:21:32;;;;;;;21.00;14.40;;;;;;;0.04;83.95;100223.16;215551;1254;61208;-73
2024/01/13 11:26:45;;;;;;;23.30;14.70;;;;;;;0.04;84.58;100213.23;215756;1255;73944;-72
2024/01/13 11:31:40;;;;;;;26.90;14.90;;;;;;;0.01;84.58;100217.36;215837;1254;70477;-73
2024/01/13 11:36:47;;;;;;;25.40;14.40;;;;;;;-0.04;84.46;100214.56;216019;1254;61250;-74
2024/01/13 11:41:47;;;;;;;19.40;12.60;;;;;;;-0.08;84.48;100215.23;216186;1254;67024;-76
2024/01/13 11:46:57;;;;;;;27.90;15.20;;;;;;;-0.07;84.54;100209.46;215884;1254;61220;-75
2024/01/13 11:52:08;;;;;;;32.90;15.10;;;;;;;-0.08;84.63;100195.64;215974;1254;73060;-76
2024/01/13 11:57:32;;;;;;;23.30;14.00;;;;;;;-0.09;84.84;100190.48;216085;1254;73197;-76
2024/01/13 12:02:28;;;;;;;22.40;14.00;;;;;;;-0.05;84.53;100181.63;216028;1251;61335;-75
2024/01/13 12:07:22;;;;;;;20.10;13.50;;;;;;;-0.03;84.37;100177.50;216192;1256;61249;-76
2024/01/13 12:12:15;;;;;;;20.10;12.30;;;;;;;-0.06;84.18;100166.95;216162;1254;61198;-75
2024/01/13 12:17:10;;;;;;;17.70;12.30;;;;;;;-0.02;84.26;100155.89;216350;1254;73445;-75
2024/01/13 12:22:05;;;;;;;20.80;13.00;;;;;;;0.02;84.14;100142.25;216103;1254;61243;-75
2024/01/13 12:27:02;;;;;;;17.10;12.00;;;;;;;0.09;84.05;100130.88;216139;1254;61349;-75
2024/01/13 12:31:56;;;;;;;17.30;11.60;;;;;;;0.16;84.01;100125.05;216121;1254;66769;-73
2024/01/13 12:36:51;;;;;;;16.90;11.00;;;;;;;0.18;83.67;100115.11;216019;1255;61241;-72
2024/01/13 12:41:44;;;;;;;16.50;10.00;;;;;;;0.12;83.60;100105.27;216125;1254;74983;-71
2024/01/13 12:47:38;;;;;;;15.50;9.80;;;;;;;0.05;83.44;100091.99;216085;1253;72566;-74
2024/01/13 12:52:50;;;;;;;17.50;9.90;;;;;;;-0.04;83.71;100080.83;216024;1256;61257;-73
2024/01/13 12:57:44;;;;;;;16.60;10.20;;;;;;;-0.10;83.69;100085.30;215889;1254;65850;-72
2024/01/13 13:02:40;;;;;;;16.00;9.70;;;;;;;-0.15;83.89;100095.09;215965;1256;61278;-72
2024/01/13 13:07:33;;;;;;;16.20;11.00;;;;;;;-0.20;84.09;100094.16;215958;1254;72867;-73
2024/01/13 13:12:26;;;;;;;19.10;11.80;;;;;;;-0.25;84.24;100088.98;216048;1256;72037;-72
2024/01/13 13:17:19;;;;;;;17.50;11.10;;;;;;;-0.28;84.48;100076.52;216141;1256;61256;-72
2024/01/13 13:22:12;;;;;;;17.90;10.60;;;;;;;-0.29;84.92;100065.10;216105;1254;61912;-72
2024/01/13 13:27:06;;;;;;;17.60;11.00;;;;;;;-0.29;85.01;100046.51;216008;1254;61346;-73
2024/01/13 13:32:03;;;;;;;22.00;13.50;;;;;;;-0.31;84.79;100035.54;216085;1257;75599;-72
2024/01/13 13:36:57;;;;;;;22.40;12.50;;;;;;;-0.31;85.41;100028.87;215952;1254;172913;-72
2024/01/13 13:41:49;;;;;;;19.60;12.60;;;;;;;-0.35;85.42;100009.10;216021;1254;61259;-71
2024/01/13 13:46:42;;;;;;;18.70;11.80;;;;;;;-0.37;85.42;99992.98;216001;1253;61409;-71
2024/01/13 13:51:35;;;;;;;24.80;13.80;;;;;;;-0.39;85.92;99978.61;216071;1254;61243;-71
2024/01/13 13:56:28;;;;;;;20.50;11.80;;;;;;;-0.42;85.63;99969.80;216048;1253;61320;-72
2024/01/13 14:01:20;;;;;;;22.80;13.80;;;;;;;-0.41;85.63;99964.55;215994;1254;61216;-71
2024/01/13 14:06:14;;;;;;;18.60;11.20;;;;;;;-0.37;85.46;99944.12;216130;1255;61368;-71
2024/01/13 14:11:11;;;;;;;19.10;11.30;;;;;;;-0.36;85.37;99939.56;215975;1256;65632;-71
2024/01/13 14:16:04;;;;;;;19.80;10.10;;;;;;;-0.36;85.32;99932.59;215948;1254;61338;-71
2024/01/13 14:20:57;;;;;;;16.40;10.50;;;;;;;-0.35;85.12;99923.76;216069;1254;74800;-72
2024/01/13 14:25:50;;;;;;;19.00;11.00;;;;;;;-0.36;84.86;99926.13;216024;1256;61845;-73
2024/01/13 14:30:46;;;;;;;16.70;10.20;;;;;;;-0.38;84.81;99929.96;215977;1254;61662;-71
2024/01/13 14:35:39;;;;;;;15.40;10.10;;;;;;;-0.40;84.72;99928.52;216052;1253;61233;-71
2024/01/13 14:40:31;;;;;;;16.60;9.90;;;;;;;-0.41;84.51;99927.44;216065;1256;61367;-71
2024/01/13 14:45:25;;;;;;;12.90;8.50;;;;;;;-0.42;84.49;99915.48;215929;1254;61270;-71
2024/01/13 14:50:18;;;;;;;12.20;8.40;;;;;;;-0.42;84.40;99904.02;215729;1253;70648;-72
2024/01/13 14:55:11;;;;;;;13.50;9.30;;;;;;;-0.43;84.43;99901.95;215778;1254;61336;-72
2024/01/13 15:00:06;;;;;;;12.30;8.40;;;;;;;-0.44;84.21;99901.39;215951;1254;61202;-71
2024/01/13 15:04:59;;;;;;;19.50;10.40;;;;;;;-0.44;84.24;99902.08;215925;1255;61268;-71
2024/01/13 15:10:10;;;;;;;14.40;9.70;;;;;;;-0.45;84.39;99897.46;216014;1254;73137;-71
2024/01/13 15:15:04;;;;;;;16.30;10.40;;;;;;;-0.46;84.30;99896.38;215862;1253;73614;-72
2024/01/13 15:20:11;;;;;;;14.30;9.30;;;;;;;-0.45;84.52;99879.41;216106;1253;61329;-73
2024/01/13 15:25:04;;;;;;;14.20;9.00;;;;;;;-0.46;84.40;99865.04;215971;1254;66241;-73
2024/01/13 15:30:11;;;;;;;12.20;8.30;;;;;;;-0.47;84.67;99854.13;215978;1254;61262;-73
2024/01/13 15:35:06;;;;;;;15.10;8.60;;;;;;;-0.47;85.01;99850.88;216064;1254;73768;-72
2024/01/13 15:40:08;;;;;;;14.20;8.10;;;;;;;-0.48;85.08;99842.63;216066;1254;71393;-73
2024/01/13 15:45:02;;;;;;;12.40;7.90;;;;;;;-0.50;85.13;99839.33;216134;1254;61281;-73
2024/01/13 15:50:05;;;;;;;14.30;9.80;;;;;;;-0.52;85.34;99838.38;216090;1253;65427;-74
2024/01/13 15:55:21;;;;;;;17.00;9.30;;;;;;;-0.52;85.67;99820.32;215607;1256;61330;-72
2024/01/13 16:00:16;;;;;;;16.60;10.60;;;;;;;-0.53;85.80;99800.55;216049;1254;75657;-72
2024/01/13 16:05:11;;;;;;;13.70;9.10;;;;;;;-0.56;85.42;99789.13;216392;1253;71492;-72
2024/01/13 16:10:09;;;;;;;15.20;8.40;;;;;;;-0.58;85.55;99784.44;216043;1254;61201;-72
2024/01/13 16:15:02;;;;;;;16.60;10.70;;;;;;;-0.60;85.77;99781.13;216113;1256;66765;-76
2024/01/13 16:20:15;;;;;;;15.70;9.90;;;;;;;-0.57;86.05;99775.15;216136;1253;61942;-73
2024/01/13 16:25:08;;;;;;;14.30;9.90;;;;;;;-0.55;86.02;99774.52;216075;1254;73357;-72
2024/01/13 16:30:04;;;;;;;18.00;9.90;;;;;;;-0.57;86.25;99769.70;216107;1254;71403;-75
2024/01/13 16:34:57;;;;;;;17.50;10.90;;;;;;;-0.56;86.34;99758.17;215941;1253;61241;-74
2024/01/13 16:39:54;;;;;;;15.00;10.40;;;;;;;-0.54;86.14;99744.27;216099;1254;65759;-74
2024/01/13 16:44:46;;;;;;;16.50;10.70;;;;;;;-0.53;86.34;99730.91;215933;1253;61370;-74
2024/01/13 16:55:26;;;;;;;20.70;12.60;;;;;;;-0.52;86.59;99703.86;216033;1254;72573;-74
2024/01/13 17:00:20;;;;;;;17.70;10.70;;;;;;;-0.52;86.69;99692.30;216005;1254;61272;-72
2024/01/13 17:05:14;;;;;;;20.30;12.80;;;;;;;-0.50;86.97;99685.73;216234;1254;65607;-79
2024/01/13 17:10:09;;;;;;;24.60;14.60;;;;;;;-0.48;87.22;99682.27;216392;1254;61329;-76
2024/01/13 17:15:02;;;;;;;23.00;14.20;;;;;;;-0.47;87.28;99674.98;216072;1254;75628;-76
2024/01/13 17:19:58;;;;;;;21.90;13.40;;;;;;;-0.45;87.48;99666.73;216052;1256;72653;-73
2024/01/13 17:24:51;;;;;;;26.00;15.60;;;;;;;-0.45;87.42;99657.73;215938;1254;61217;-73
2024/01/13 17:29:44;;;;;;;25.10;15.20;;;;;;;-0.43;87.62;99645.39;215898;1254;61258;-72
2024/01/13 17:40:20;;;;;;;26.00;16.20;;;;;;;-0.37;87.99;99622.98;215956;1254;75724;-72
2024/01/13 17:45:14;;;;;;;25.40;17.00;;;;;;;-0.34;87.89;99620.88;215925;1256;71542;-73
2024/01/13 17:50:10;;;;;;;27.20;17.80;;;;;;;-0.32;88.04;99617.90;215993;1254;61234;-76
2024/01/13 17:55:07;;;;;;;26.30;17.60;;;;;;;-0.31;88.15;99614.91;216101;1253;64625;-73
2024/01/13 18:00:03;;;;;;;22.60;14.90;;;;;;;-0.29;88.52;99602.87;215886;1253;61218;-73
2024/01/13 18:05:02;;;;;;;24.80;14.90;;;;;;;-0.27;88.55;99590.38;216007;1256;73237;-74
2024/01/13 18:09:56;;;;;;;29.50;17.90;;;;;;;-0.24;88.79;99587.29;216145;1254;72520;-73
2024/01/13 18:14:50;;;;;;;27.30;17.60;;;;;;;-0.22;88.96;99579.70;215980;1253;61240;-74
2024/01/13 18:19:44;;;;;;;26.50;17.70;;;;;;;-0.18;88.86;99573.02;216126;1253;67410;-74
2024/01/13 18:24:38;;;;;;;24.20;16.70;;;;;;;-0.16;89.05;99566.14;216134;1254;61246;-73
2024/01/13 18:29:31;;;;;;;25.70;17.10;;;;;;;-0.13;89.06;99560.27;215846;1254;74862;-74
2024/01/13 18:34:24;;;;;;;24.80;17.20;;;;;;;-0.12;89.46;99544.00;216017;1254;61259;-72
2024/01/13 18:39:18;;;;;;;23.00;14.90;;;;;;;-0.10;89.61;99542.20;216318;1253;61269;-75
2024/01/13 18:44:16;;;;;;;20.20;14.70;;;;;;;-0.09;89.82;99531.66;216102;1254;68154;-75
2024/01/13 18:49:09;;;;;;;21.20;15.00;;;;;;;-0.08;89.94;99521.99;216120;1254;61247;-73
2024/01/13 18:54:03;;;;;;;17.60;15.10;;;;;;;-0.06;89.98;99516.30;216150;1253;73437;-73
2024/01/13 18:59:00;;;;;;;23.50;15.90;;;;;;;-0.04;89.97;99508.17;216138;1253;73687;-73
2024/01/13 19:03:53;;;;;;;23.10;15.80;;;;;;;-0.04;90.12;99493.56;216105;1253;61258;-75
2024/01/13 19:08:46;;;;;;;19.80;13.30;;;;;;;-0.02;90.10;99484.92;216157;1254;65394;-75
2024/01/13 19:13:39;;;;;;;19.00;14.00;;;;;;;-0.02;90.45;99483.08;215942;1253;61241;-74
2024/01/13 19:18:32;;;;;;;19.60;12.70;;;;;;;-0.02;90.27;99478.13;216122;1254;72569;-74
2024/01/13 19:23:25;;;;;;;16.40;12.00;;;;;;;-0.01;90.43;99468.97;216309;1254;71710;-72
2024/01/13 19:28:21;;;;;;;15.30;12.20;;;;;;;-0.01;90.49;99464.86;216122;1254;61349;-74
2024/01/13 19:33:16;;;;;;;20.00;13.10;;;;;;;-0.01;90.50;99459.58;216063;1254;67508;-73
2024/01/13 19:38:09;;;;;;;17.00;13.20;;;;;;;-0.01;90.48;99448.36;216131;1256;61266;-73
2024/01/13 19:43:04;;;;;;;16.00;12.90;;;;;;;0.01;90.54;99440.08;216079;1253;61201;-73
2024/01/13 19:47:57;;;;;;;18.30;11.80;;;;;;;0.01;90.66;99431.02;216164;1253;72669;-74
2024/01/13 19:52:50;;;;;;;15.50;12.10;;;;;;;0.01;90.72;99420.64;215721;1256;61314;-77
2024/01/13 19:58:37;;;;;;;14.30;11.50;;;;;;;0.02;90.96;99417.25;216057;1254;62073;-74
2024/01/13 20:03:30;;;;;;;14.40;11.00;;;;;;;0.02;90.92;99407.23;214716;1260;61260;-73
2024/01/13 20:08:25;;;;;;;13.80;9.60;;;;;;;0.03;90.81;99398.74;214809;1260;73370;-72
2024/01/13 20:13:19;;;;;;;12.80;9.10;;;;;;;0.01;91.21;99387.95;214725;1261;71860;-74
2024/01/13 20:18:12;;;;;;;11.90;9.60;;;;;;;0.01;91.12;99380.42;214658;1260;61388;-74
2024/01/13 20:23:05;;;;;;;12.50;10.00;;;;;;;0.02;91.19;99371.94;214676;1260;65826;-76
2024/01/13 20:28:00;;;;;;;13.50;10.70;;;;;;;0.02;91.22;99360.34;214672;1260;61247;-77
2024/01/13 20:32:55;;;;;;;14.30;11.00;;;;;;;0.00;91.37;99346.85;215331;1252;75469;-77
2024/01/13 20:37:51;;;;;;;12.00;8.70;;;;;;;0.02;91.19;99341.79;215991;1253;71443;-76
2024/01/13 20:42:44;;;;;;;13.80;9.60;;;;;;;0.02;91.12;99329.52;216003;1254;61678;-74
2024/01/13 20:47:37;;;;;;;12.80;10.20;;;;;;;0.02;91.40;99325.61;215993;1253;67111;-73
2024/01/13 20:52:32;;;;;;;13.50;10.80;;;;;;;0.02;90.93;99319.83;216009;1254;61212;-74
2024/01/13 20:57:25;;;;;;;17.20;13.10;;;;;;;0.02;91.41;99317.24;216062;1253;61246;-78
2024/01/13 21:02:18;;;;;;;17.10;12.60;;;;;;;0.02;91.21;99306.67;216214;1253;71038;-73
2024/01/13 21:07:11;;;;;;;15.40;11.10;;;;;;;0.01;91.23;99300.54;216143;1253;61297;-73
2024/01/13 21:12:13;;;;;;;12.00;9.60;;;;;;;0.00;91.46;99289.79;215954;1254;61460;-74
2024/01/13 21:17:06;;;;;;;12.50;9.70;;;;;;;-0.01;91.16;99285.50;216117;1254;61246;-72
2024/01/13 21:21:59;;;;;;;12.10;8.60;;;;;;;-0.01;91.39;99278.86;216151;1252;64096;-73
2024/01/13 21:26:53;;;;;;;12.20;9.70;;;;;;;-0.02;91.25;99275.39;216113;1254;61323;-74
2024/01/13 21:31:50;;;;;;;13.90;9.80;;;;;;;-0.02;91.27;99268.73;215988;1253;61214;-73
2024/01/13 21:36:44;;;;;;;13.00;10.10;;;;;;;-0.02;91.46;99266.90;215867;1254;66514;-73
2024/01/13 21:41:41;;;;;;;11.10;9.00;;;;;;;-0.02;91.39;99253.96;215969;1253;61348;-76
2024/01/13 21:52:33;;;;;;;17.30;12.30;;;;;;;-0.03;91.36;99235.65;216065;1253;71493;-74
2024/01/13 21:57:26;;;;;;;16.30;11.90;;;;;;;-0.03;91.63;99232.27;216156;1253;61257;-74
2024/01/13 22:02:19;;;;;;;14.00;10.70;;;;;;;-0.02;91.52;99230.25;216177;1253;65618;-73
2024/01/13 22:07:12;;;;;;;16.20;10.50;;;;;;;-0.03;91.43;99221.55;216015;1254;61264;-74
2024/01/13 22:12:05;;;;;;;14.60;10.90;;;;;;;-0.05;92.07;99218.05;216083;1254;61226;-75
2024/01/13 22:16:58;;;;;;;14.20;10.10;;;;;;;-0.05;91.87;99212.08;216162;1254;71039;-75
2024/01/13 22:21:52;;;;;;;14.00;11.20;;;;;;;-0.05;91.75;99213.28;216024;1254;61208;-75
2024/01/13 22:26:45;;;;;;;16.60;11.20;;;;;;;-0.05;91.84;99202.71;216024;1254;67470;-76
2024/01/13 22:31:38;;;;;;;14.80;10.50;;;;;;;-0.04;91.90;99207.18;216094;1253;61250;-76
2024/01/13 22:36:30;;;;;;;14.50;10.90;;;;;;;-0.04;92.09;99198.31;216113;1254;61266;-74
2024/01/13 22:41:23;;;;;;;14.90;10.60;;;;;;;-0.03;92.13;99191.19;216006;1253;61362;-76
2024/01/13 22:46:16;;;;;;;15.50;11.00;;;;;;;-0.02;92.02;99183.09;216089;1252;61230;-75
2024/01/13 22:51:09;;;;;;;16.80;13.00;;;;;;;-0.01;92.18;99175.44;216127;1253;61231;-76